Stamford, South Dakota
Current Conditions -  °F | °C
As of 1:55 AM on Wednesday 26 Nov 2014 (Local Time) from KPHP Reporting Station
Overcast Overcast  
Wind Chill: 12°   Ceiling: 2100
Heat Index: 26°   Visibility: 10mi
Dew Point: 20°   Wind: 22mph
Humidity: 78%   Direction: 350°N
Pressure: 30.13"   Gusts: 29mph
Location:  44.3169°N, 101.368°W
Report Text: KPHP 260855Z AUTO 35019G25KT 10SM OVC021 M03/M07 A3013 RMK AO2 PK WND 34035/0822 SLP223 60000 T10331067 53054
Loading
Personal Weather Stations






























Interactive Weather Map New forecast layout! Learn more

10-Day Weather Forecast

Advertisements
Track Severe Weather on mobile